sensor_id;sensor_type;location;lat;lon;timestamp;P1;durP1;ratioP1;P2;durP2;ratioP2
59555;SDS011;45374;52.746;6.304;2022-08-19T00:35:16;12.73;;;9.13;;
59555;SDS011;45374;52.746;6.304;2022-08-19T00:37:43;11.93;;;8.45;;
59555;SDS011;45374;52.746;6.304;2022-08-19T00:40:10;13.98;;;9.10;;
59555;SDS011;45374;52.746;6.304;2022-08-19T00:42:36;10.27;;;7.15;;
59555;SDS011;45374;52.746;6.304;2022-08-19T00:45:03;11.10;;;7.00;;
59555;SDS011;45374;52.746;6.304;2022-08-19T00:47:36;8.75;;;5.65;;
59555;SDS011;45374;52.746;6.304;2022-08-19T00:50:02;9.20;;;4.95;;
59555;SDS011;45374;52.746;6.304;2022-08-19T00:52:29;3.92;;;3.30;;
59555;SDS011;45374;52.746;6.304;2022-08-19T00:54:59;7.45;;;5.05;;
59555;SDS011;45374;52.746;6.304;2022-08-19T00:57:28;7.32;;;5.40;;
59555;SDS011;45374;52.746;6.304;2022-08-19T00:59:57;7.10;;;5.05;;
59555;SDS011;45374;52.746;6.304;2022-08-19T01:02:24;7.85;;;5.18;;
59555;SDS011;45374;52.746;6.304;2022-08-19T01:04:51;85.03;;;5.95;;
59555;SDS011;45374;52.746;6.304;2022-08-19T01:07:17;8.23;;;4.30;;
59555;SDS011;45374;52.746;6.304;2022-08-19T01:09:43;6.32;;;4.13;;
59555;SDS011;45374;52.746;6.304;2022-08-19T01:12:09;7.22;;;5.13;;
59555;SDS011;45374;52.746;6.304;2022-08-19T01:18:12;14.63;;;8.18;;
59555;SDS011;45374;52.746;6.304;2022-08-19T01:20:40;7.50;;;4.60;;
59555;SDS011;45374;52.746;6.304;2022-08-19T01:23:07;6.10;;;3.17;;
59555;SDS011;45374;52.746;6.304;2022-08-19T01:25:41;4.55;;;2.55;;
59555;SDS011;45374;52.746;6.304;2022-08-19T01:28:19;3.55;;;2.70;;
59555;SDS011;45374;52.746;6.304;2022-08-19T01:30:50;3.72;;;2.42;;
59555;SDS011;45374;52.746;6.304;2022-08-19T01:33:16;4.43;;;3.30;;
59555;SDS011;45374;52.746;6.304;2022-08-19T01:35:44;43.75;;;4.30;;
59555;SDS011;45374;52.746;6.304;2022-08-19T01:38:19;27.73;;;3.70;;
59555;SDS011;45374;52.746;6.304;2022-08-19T01:40:46;10.25;;;2.60;;
59555;SDS011;45374;52.746;6.304;2022-08-19T01:43:12;3.95;;;2.60;;
59555;SDS011;45374;52.746;6.304;2022-08-19T01:45:38;1.38;;;1.27;;
59555;SDS011;45374;52.746;6.304;2022-08-19T01:48:05;2.60;;;1.75;;
59555;SDS011;45374;52.746;6.304;2022-08-19T01:50:32;2.40;;;1.98;;
59555;SDS011;45374;52.746;6.304;2022-08-19T01:52:59;3.22;;;1.88;;
59555;SDS011;45374;52.746;6.304;2022-08-19T01:55:26;3.03;;;2.30;;
59555;SDS011;45374;52.746;6.304;2022-08-19T01:57:53;2.42;;;1.65;;
59555;SDS011;45374;52.746;6.304;2022-08-19T02:00:23;7.80;;;2.47;;
59555;SDS011;45374;52.746;6.304;2022-08-19T02:02:50;7.07;;;2.20;;
59555;SDS011;45374;52.746;6.304;2022-08-19T02:05:15;9.02;;;2.42;;
59555;SDS011;45374;52.746;6.304;2022-08-19T02:07:43;68.40;;;4.30;;
59555;SDS011;45374;52.746;6.304;2022-08-19T02:10:11;26.45;;;2.92;;
59555;SDS011;45374;52.746;6.304;2022-08-19T02:12:39;27.63;;;3.92;;
59555;SDS011;45374;52.746;6.304;2022-08-19T02:15:05;17.63;;;2.42;;
59555;SDS011;45374;52.746;6.304;2022-08-19T02:17:32;4.03;;;2.65;;
59555;SDS011;45374;52.746;6.304;2022-08-19T02:19:58;3.45;;;2.50;;
59555;SDS011;45374;52.746;6.304;2022-08-19T02:22:24;3.15;;;2.30;;
59555;SDS011;45374;52.746;6.304;2022-08-19T02:24:54;2.53;;;1.48;;
59555;SDS011;45374;52.746;6.304;2022-08-19T02:27:21;4.95;;;2.85;;
59555;SDS011;45374;52.746;6.304;2022-08-19T02:29:47;10.68;;;2.13;;
59555;SDS011;45374;52.746;6.304;2022-08-19T02:32:15;2.80;;;1.60;;
59555;SDS011;45374;52.746;6.304;2022-08-19T02:34:40;3.63;;;1.95;;
59555;SDS011;45374;52.746;6.304;2022-08-19T02:37:06;2.53;;;1.50;;
59555;SDS011;45374;52.746;6.304;2022-08-19T02:39:52;3.33;;;2.25;;
59555;SDS011;45374;52.746;6.304;2022-08-19T02:42:17;2.15;;;1.80;;
59555;SDS011;45374;52.746;6.304;2022-08-19T02:44:43;4.28;;;2.70;;
59555;SDS011;45374;52.746;6.304;2022-08-19T02:47:09;4.45;;;2.88;;
59555;SDS011;45374;52.746;6.304;2022-08-19T02:49:35;4.53;;;2.80;;
59555;SDS011;45374;52.746;6.304;2022-08-19T02:52:02;3.35;;;2.00;;
59555;SDS011;45374;52.746;6.304;2022-08-19T02:54:27;2.22;;;1.52;;
59555;SDS011;45374;52.746;6.304;2022-08-19T02:56:53;1.92;;;1.73;;
59555;SDS011;45374;52.746;6.304;2022-08-19T02:59:19;2.08;;;1.80;;
59555;SDS011;45374;52.746;6.304;2022-08-19T03:01:45;2.78;;;1.77;;
59555;SDS011;45374;52.746;6.304;2022-08-19T03:04:12;2.42;;;1.60;;
59555;SDS011;45374;52.746;6.304;2022-08-19T03:06:40;2.30;;;1.38;;
59555;SDS011;45374;52.746;6.304;2022-08-19T03:09:07;6.30;;;1.40;;
59555;SDS011;45374;52.746;6.304;2022-08-19T03:11:33;206.02;;;6.63;;
59555;SDS011;45374;52.746;6.304;2022-08-19T03:14:00;9.45;;;1.77;;
59555;SDS011;45374;52.746;6.304;2022-08-19T03:16:28;2.33;;;1.55;;
59555;SDS011;45374;52.746;6.304;2022-08-19T03:18:55;1.42;;;1.23;;
59555;SDS011;45374;52.746;6.304;2022-08-19T03:21:25;3.17;;;1.25;;
59555;SDS011;45374;52.746;6.304;2022-08-19T03:23:55;7.38;;;1.63;;
59555;SDS011;45374;52.746;6.304;2022-08-19T03:26:24;47.25;;;2.33;;
59555;SDS011;45374;52.746;6.304;2022-08-19T03:28:50;54.85;;;3.13;;
59555;SDS011;45374;52.746;6.304;2022-08-19T03:31:18;18.23;;;2.30;;
59555;SDS011;45374;52.746;6.304;2022-08-19T03:33:45;5.97;;;2.30;;
59555;SDS011;45374;52.746;6.304;2022-08-19T03:36:12;4.43;;;2.15;;
59555;SDS011;45374;52.746;6.304;2022-08-19T03:38:46;4.18;;;2.17;;
59555;SDS011;45374;52.746;6.304;2022-08-19T03:41:16;4.93;;;2.70;;
59555;SDS011;45374;52.746;6.304;2022-08-19T03:43:44;5.35;;;2.50;;
59555;SDS011;45374;52.746;6.304;2022-08-19T03:46:22;5.80;;;2.75;;
59555;SDS011;45374;52.746;6.304;2022-08-19T03:48:51;19.63;;;2.80;;
59555;SDS011;45374;52.746;6.304;2022-08-19T03:51:20;13.90;;;1.70;;
59555;SDS011;45374;52.746;6.304;2022-08-19T03:53:47;1.30;;;1.20;;
59555;SDS011;45374;52.746;6.304;2022-08-19T03:56:13;1.70;;;1.58;;
59555;SDS011;45374;52.746;6.304;2022-08-19T03:58:40;4.00;;;3.00;;
59555;SDS011;45374;52.746;6.304;2022-08-19T04:01:07;5.82;;;2.45;;
59555;SDS011;45374;52.746;6.304;2022-08-19T04:03:34;7.55;;;2.70;;
59555;SDS011;45374;52.746;6.304;2022-08-19T04:06:23;4.80;;;2.50;;
59555;SDS011;45374;52.746;6.304;2022-08-19T04:08:49;4.00;;;2.20;;
59555;SDS011;45374;52.746;6.304;2022-08-19T04:11:18;3.67;;;2.20;;
59555;SDS011;45374;52.746;6.304;2022-08-19T04:13:46;4.03;;;2.30;;
59555;SDS011;45374;52.746;6.304;2022-08-19T04:16:12;4.45;;;2.40;;
59555;SDS011;45374;52.746;6.304;2022-08-19T04:18:38;5.85;;;2.45;;
59555;SDS011;45374;52.746;6.304;2022-08-19T04:21:05;10.65;;;2.75;;
59555;SDS011;45374;52.746;6.304;2022-08-19T04:23:32;3.45;;;2.08;;
59555;SDS011;45374;52.746;6.304;2022-08-19T04:25:58;4.07;;;2.08;;
59555;SDS011;45374;52.746;6.304;2022-08-19T04:28:24;3.05;;;1.70;;
59555;SDS011;45374;52.746;6.304;2022-08-19T04:30:50;3.40;;;2.25;;
59555;SDS011;45374;52.746;6.304;2022-08-19T04:33:19;5.22;;;2.50;;
59555;SDS011;45374;52.746;6.304;2022-08-19T04:35:46;3.33;;;2.35;;
59555;SDS011;45374;52.746;6.304;2022-08-19T04:38:13;3.22;;;2.35;;
59555;SDS011;45374;52.746;6.304;2022-08-19T04:40:41;5.55;;;2.60;;
59555;SDS011;45374;52.746;6.304;2022-08-19T04:43:26;6.05;;;2.65;;
59555;SDS011;45374;52.746;6.304;2022-08-19T04:45:52;5.05;;;3.22;;
59555;SDS011;45374;52.746;6.304;2022-08-19T04:48:18;7.35;;;3.30;;
59555;SDS011;45374;52.746;6.304;2022-08-19T04:50:50;13.75;;;3.60;;
59555;SDS011;45374;52.746;6.304;2022-08-19T04:53:29;9.20;;;3.60;;
59555;SDS011;45374;52.746;6.304;2022-08-19T04:55:57;19.00;;;3.40;;
59555;SDS011;45374;52.746;6.304;2022-08-19T04:58:24;5.15;;;3.50;;
59555;SDS011;45374;52.746;6.304;2022-08-19T05:00:51;11.52;;;4.40;;
59555;SDS011;45374;52.746;6.304;2022-08-19T05:03:17;9.30;;;4.80;;
59555;SDS011;45374;52.746;6.304;2022-08-19T05:05:46;6.50;;;4.22;;
59555;SDS011;45374;52.746;6.304;2022-08-19T05:08:14;5.75;;;4.40;;
59555;SDS011;45374;52.746;6.304;2022-08-19T05:10:45;4.97;;;3.92;;
59555;SDS011;45374;52.746;6.304;2022-08-19T05:13:12;6.43;;;4.63;;
59555;SDS011;45374;52.746;6.304;2022-08-19T05:15:38;5.80;;;4.30;;
59555;SDS011;45374;52.746;6.304;2022-08-19T05:18:04;23.50;;;4.47;;
59555;SDS011;45374;52.746;6.304;2022-08-19T05:20:48;20.55;;;3.83;;
59555;SDS011;45374;52.746;6.304;2022-08-19T05:23:32;12.98;;;3.50;;
59555;SDS011;45374;52.746;6.304;2022-08-19T05:25:58;21.20;;;3.45;;
59555;SDS011;45374;52.746;6.304;2022-08-19T05:28:23;105.00;;;6.47;;
59555;SDS011;45374;52.746;6.304;2022-08-19T05:30:49;112.47;;;6.95;;
59555;SDS011;45374;52.746;6.304;2022-08-19T05:33:16;63.42;;;6.10;;
59555;SDS011;45374;52.746;6.304;2022-08-19T05:35:42;18.02;;;5.55;;
59555;SDS011;45374;52.746;6.304;2022-08-19T05:38:09;12.50;;;5.90;;
59555;SDS011;45374;52.746;6.304;2022-08-19T05:40:36;24.25;;;6.03;;
59555;SDS011;45374;52.746;6.304;2022-08-19T05:43:04;17.40;;;5.47;;
59555;SDS011;45374;52.746;6.304;2022-08-19T05:45:30;10.27;;;5.47;;
59555;SDS011;45374;52.746;6.304;2022-08-19T05:47:56;7.03;;;5.13;;
59555;SDS011;45374;52.746;6.304;2022-08-19T05:50:23;8.32;;;5.93;;
59555;SDS011;45374;52.746;6.304;2022-08-19T05:52:50;11.63;;;6.55;;
59555;SDS011;45374;52.746;6.304;2022-08-19T05:55:16;10.98;;;7.82;;
59555;SDS011;45374;52.746;6.304;2022-08-19T05:57:45;10.48;;;7.63;;
59555;SDS011;45374;52.746;6.304;2022-08-19T06:00:11;9.18;;;7.30;;
59555;SDS011;45374;52.746;6.304;2022-08-19T06:02:38;16.55;;;9.20;;
59555;SDS011;45374;52.746;6.304;2022-08-19T06:05:05;16.55;;;9.32;;
59555;SDS011;45374;52.746;6.304;2022-08-19T06:07:33;13.63;;;9.40;;
59555;SDS011;45374;52.746;6.304;2022-08-19T06:10:04;10.50;;;8.18;;
59555;SDS011;45374;52.746;6.304;2022-08-19T06:12:34;14.93;;;10.25;;
59555;SDS011;45374;52.746;6.304;2022-08-19T06:15:02;15.60;;;10.75;;
59555;SDS011;45374;52.746;6.304;2022-08-19T06:17:31;13.60;;;9.13;;
59555;SDS011;45374;52.746;6.304;2022-08-19T06:19:59;14.07;;;10.40;;
59555;SDS011;45374;52.746;6.304;2022-08-19T06:22:25;16.52;;;11.13;;
59555;SDS011;45374;52.746;6.304;2022-08-19T06:24:51;18.75;;;12.35;;
59555;SDS011;45374;52.746;6.304;2022-08-19T06:27:18;17.45;;;12.35;;
59555;SDS011;45374;52.746;6.304;2022-08-19T06:29:45;21.70;;;14.18;;
59555;SDS011;45374;52.746;6.304;2022-08-19T06:32:12;21.83;;;13.90;;
59555;SDS011;45374;52.746;6.304;2022-08-19T06:34:41;26.02;;;15.23;;
59555;SDS011;45374;52.746;6.304;2022-08-19T06:37:07;24.45;;;14.50;;
59555;SDS011;45374;52.746;6.304;2022-08-19T06:39:34;26.48;;;16.67;;
59555;SDS011;45374;52.746;6.304;2022-08-19T06:42:03;28.42;;;17.90;;
59555;SDS011;45374;52.746;6.304;2022-08-19T06:44:32;32.72;;;19.63;;
59555;SDS011;45374;52.746;6.304;2022-08-19T06:47:05;36.60;;;19.92;;
59555;SDS011;45374;52.746;6.304;2022-08-19T06:49:32;33.72;;;20.27;;
59555;SDS011;45374;52.746;6.304;2022-08-19T06:51:58;32.95;;;19.80;;
59555;SDS011;45374;52.746;6.304;2022-08-19T06:54:25;36.72;;;20.40;;
59555;SDS011;45374;52.746;6.304;2022-08-19T06:56:53;32.22;;;20.25;;
59555;SDS011;45374;52.746;6.304;2022-08-19T06:59:20;33.92;;;21.15;;
59555;SDS011;45374;52.746;6.304;2022-08-19T07:01:48;39.00;;;21.80;;
59555;SDS011;45374;52.746;6.304;2022-08-19T07:04:17;33.42;;;21.48;;
59555;SDS011;45374;52.746;6.304;2022-08-19T07:06:46;36.58;;;21.33;;
59555;SDS011;45374;52.746;6.304;2022-08-19T07:09:13;37.53;;;21.55;;
59555;SDS011;45374;52.746;6.304;2022-08-19T07:11:43;34.95;;;22.08;;
59555;SDS011;45374;52.746;6.304;2022-08-19T07:14:10;36.78;;;22.85;;
59555;SDS011;45374;52.746;6.304;2022-08-19T07:16:36;37.30;;;22.02;;
59555;SDS011;45374;52.746;6.304;2022-08-19T07:19:01;33.38;;;20.63;;
59555;SDS011;45374;52.746;6.304;2022-08-19T07:21:27;36.78;;;21.95;;
59555;SDS011;45374;52.746;6.304;2022-08-19T07:23:54;32.15;;;21.73;;
59555;SDS011;45374;52.746;6.304;2022-08-19T07:26:25;34.17;;;21.85;;
59555;SDS011;45374;52.746;6.304;2022-08-19T07:28:53;34.08;;;21.75;;
59555;SDS011;45374;52.746;6.304;2022-08-19T07:31:22;32.55;;;22.13;;
59555;SDS011;45374;52.746;6.304;2022-08-19T07:33:49;35.75;;;22.33;;
59555;SDS011;45374;52.746;6.304;2022-08-19T07:36:17;36.20;;;22.65;;
59555;SDS011;45374;52.746;6.304;2022-08-19T07:38:46;35.75;;;23.25;;
59555;SDS011;45374;52.746;6.304;2022-08-19T07:41:15;32.53;;;22.50;;
59555;SDS011;45374;52.746;6.304;2022-08-19T07:43:45;34.43;;;22.87;;
59555;SDS011;45374;52.746;6.304;2022-08-19T07:46:12;31.77;;;22.13;;
59555;SDS011;45374;52.746;6.304;2022-08-19T07:48:38;34.30;;;22.13;;
59555;SDS011;45374;52.746;6.304;2022-08-19T07:51:08;34.88;;;22.10;;
59555;SDS011;45374;52.746;6.304;2022-08-19T07:53:35;29.77;;;20.98;;
59555;SDS011;45374;52.746;6.304;2022-08-19T07:56:02;31.52;;;21.42;;
59555;SDS011;45374;52.746;6.304;2022-08-19T07:58:33;31.55;;;21.35;;
59555;SDS011;45374;52.746;6.304;2022-08-19T08:01:03;32.67;;;21.13;;
59555;SDS011;45374;52.746;6.304;2022-08-19T08:03:29;31.58;;;21.05;;
59555;SDS011;45374;52.746;6.304;2022-08-19T08:06:27;28.52;;;20.63;;
59555;SDS011;45374;52.746;6.304;2022-08-19T08:09:13;29.35;;;20.77;;
59555;SDS011;45374;52.746;6.304;2022-08-19T08:12:20;30.58;;;21.85;;
59555;SDS011;45374;52.746;6.304;2022-08-19T08:17:11;27.55;;;20.73;;
59555;SDS011;45374;52.746;6.304;2022-08-19T08:19:38;25.73;;;20.15;;
59555;SDS011;45374;52.746;6.304;2022-08-19T08:22:06;27.98;;;20.73;;
59555;SDS011;45374;52.746;6.304;2022-08-19T08:24:33;28.58;;;21.75;;
59555;SDS011;45374;52.746;6.304;2022-08-19T08:27:00;26.77;;;20.40;;
59555;SDS011;45374;52.746;6.304;2022-08-19T08:29:29;27.73;;;21.48;;
59555;SDS011;45374;52.746;6.304;2022-08-19T08:31:56;29.90;;;21.38;;
59555;SDS011;45374;52.746;6.304;2022-08-19T08:34:22;28.15;;;21.70;;
59555;SDS011;45374;52.746;6.304;2022-08-19T08:36:48;28.95;;;22.10;;
59555;SDS011;45374;52.746;6.304;2022-08-19T08:39:16;28.40;;;22.10;;
59555;SDS011;45374;52.746;6.304;2022-08-19T08:44:18;31.38;;;22.25;;
59555;SDS011;45374;52.746;6.304;2022-08-19T08:46:51;32.72;;;22.85;;
59555;SDS011;45374;52.746;6.304;2022-08-19T08:49:33;30.80;;;22.80;;
59555;SDS011;45374;52.746;6.304;2022-08-19T08:52:23;32.00;;;22.63;;
59555;SDS011;45374;52.746;6.304;2022-08-19T08:54:55;28.92;;;22.52;;
59555;SDS011;45374;52.746;6.304;2022-08-19T08:59:56;26.42;;;21.13;;
59555;SDS011;45374;52.746;6.304;2022-08-19T09:02:25;27.05;;;19.92;;
59555;SDS011;45374;52.746;6.304;2022-08-19T09:04:51;25.98;;;20.67;;
59555;SDS011;45374;52.746;6.304;2022-08-19T09:07:43;27.50;;;19.63;;
59555;SDS011;45374;52.746;6.304;2022-08-19T09:10:28;22.10;;;17.25;;
59555;SDS011;45374;52.746;6.304;2022-08-19T09:13:02;25.88;;;18.70;;
59555;SDS011;45374;52.746;6.304;2022-08-19T09:16:10;23.50;;;17.85;;
59555;SDS011;45374;52.746;6.304;2022-08-19T09:18:53;24.58;;;18.27;;
59555;SDS011;45374;52.746;6.304;2022-08-19T09:21:23;24.80;;;18.88;;
59555;SDS011;45374;52.746;6.304;2022-08-19T09:23:50;23.17;;;18.55;;
59555;SDS011;45374;52.746;6.304;2022-08-19T09:26:18;23.30;;;15.70;;
59555;SDS011;45374;52.746;6.304;2022-08-19T09:28:47;21.92;;;15.82;;
59555;SDS011;45374;52.746;6.304;2022-08-19T09:31:21;20.95;;;16.60;;
59555;SDS011;45374;52.746;6.304;2022-08-19T09:33:49;18.83;;;14.90;;
59555;SDS011;45374;52.746;6.304;2022-08-19T09:36:15;21.02;;;15.55;;
59555;SDS011;45374;52.746;6.304;2022-08-19T09:38:43;23.67;;;15.93;;
59555;SDS011;45374;52.746;6.304;2022-08-19T09:41:14;21.95;;;15.52;;
59555;SDS011;45374;52.746;6.304;2022-08-19T09:43:42;23.48;;;17.52;;
59555;SDS011;45374;52.746;6.304;2022-08-19T09:46:10;24.48;;;18.30;;
59555;SDS011;45374;52.746;6.304;2022-08-19T09:48:36;20.63;;;16.67;;
59555;SDS011;45374;52.746;6.304;2022-08-19T09:51:07;19.40;;;13.75;;
59555;SDS011;45374;52.746;6.304;2022-08-19T09:53:34;20.08;;;14.15;;
59555;SDS011;45374;52.746;6.304;2022-08-19T09:56:01;15.95;;;13.15;;
59555;SDS011;45374;52.746;6.304;2022-08-19T09:58:27;23.92;;;16.58;;
59555;SDS011;45374;52.746;6.304;2022-08-19T10:00:55;20.67;;;15.13;;
59555;SDS011;45374;52.746;6.304;2022-08-19T10:03:22;19.65;;;13.88;;
59555;SDS011;45374;52.746;6.304;2022-08-19T10:05:47;20.80;;;14.05;;
59555;SDS011;45374;52.746;6.304;2022-08-19T10:08:13;19.20;;;15.05;;
59555;SDS011;45374;52.746;6.304;2022-08-19T10:10:45;18.27;;;13.95;;
59555;SDS011;45374;52.746;6.304;2022-08-19T10:13:11;21.98;;;16.35;;
59555;SDS011;45374;52.746;6.304;2022-08-19T10:15:38;23.67;;;18.50;;
59555;SDS011;45374;52.746;6.304;2022-08-19T10:18:05;24.75;;;16.95;;
59555;SDS011;45374;52.746;6.304;2022-08-19T10:20:32;16.05;;;12.70;;
59555;SDS011;45374;52.746;6.304;2022-08-19T10:23:00;21.10;;;15.50;;
59555;SDS011;45374;52.746;6.304;2022-08-19T10:25:27;23.58;;;17.90;;
59555;SDS011;45374;52.746;6.304;2022-08-19T10:27:53;29.35;;;21.85;;
59555;SDS011;45374;52.746;6.304;2022-08-19T10:30:19;30.02;;;24.80;;
59555;SDS011;45374;52.746;6.304;2022-08-19T10:32:44;30.73;;;24.35;;
59555;SDS011;45374;52.746;6.304;2022-08-19T10:35:11;30.27;;;24.15;;
59555;SDS011;45374;52.746;6.304;2022-08-19T10:37:38;30.38;;;25.00;;
59555;SDS011;45374;52.746;6.304;2022-08-19T10:40:04;27.23;;;23.40;;
59555;SDS011;45374;52.746;6.304;2022-08-19T10:42:31;27.63;;;22.58;;
59555;SDS011;45374;52.746;6.304;2022-08-19T10:44:57;31.38;;;24.35;;
59555;SDS011;45374;52.746;6.304;2022-08-19T10:47:23;27.55;;;24.02;;
59555;SDS011;45374;52.746;6.304;2022-08-19T10:49:49;24.58;;;20.80;;
59555;SDS011;45374;52.746;6.304;2022-08-19T10:52:33;25.10;;;22.20;;
59555;SDS011;45374;52.746;6.304;2022-08-19T10:55:03;27.27;;;23.35;;
59555;SDS011;45374;52.746;6.304;2022-08-19T10:57:49;25.60;;;22.73;;
59555;SDS011;45374;52.746;6.304;2022-08-19T11:00:15;27.50;;;22.63;;
59555;SDS011;45374;52.746;6.304;2022-08-19T11:02:41;38.30;;;31.10;;
59555;SDS011;45374;52.746;6.304;2022-08-19T11:05:07;41.83;;;31.23;;
59555;SDS011;45374;52.746;6.304;2022-08-19T11:07:36;32.92;;;26.65;;
59555;SDS011;45374;52.746;6.304;2022-08-19T11:10:03;33.53;;;26.48;;
59555;SDS011;45374;52.746;6.304;2022-08-19T11:12:29;29.17;;;23.30;;
59555;SDS011;45374;52.746;6.304;2022-08-19T11:14:55;28.17;;;22.50;;
59555;SDS011;45374;52.746;6.304;2022-08-19T11:17:20;30.33;;;22.45;;
59555;SDS011;45374;52.746;6.304;2022-08-19T11:19:48;29.98;;;23.88;;
59555;SDS011;45374;52.746;6.304;2022-08-19T11:22:14;29.33;;;21.35;;
59555;SDS011;45374;52.746;6.304;2022-08-19T11:24:40;29.58;;;23.83;;
59555;SDS011;45374;52.746;6.304;2022-08-19T11:27:07;38.50;;;25.40;;
59555;SDS011;45374;52.746;6.304;2022-08-19T11:29:37;33.88;;;25.42;;
59555;SDS011;45374;52.746;6.304;2022-08-19T11:32:05;32.65;;;25.25;;
59555;SDS011;45374;52.746;6.304;2022-08-19T11:34:32;29.08;;;22.80;;
59555;SDS011;45374;52.746;6.304;2022-08-19T11:37:00;31.67;;;23.67;;
59555;SDS011;45374;52.746;6.304;2022-08-19T11:39:27;29.52;;;21.65;;
59555;SDS011;45374;52.746;6.304;2022-08-19T11:41:55;29.77;;;23.15;;
59555;SDS011;45374;52.746;6.304;2022-08-19T11:44:23;29.63;;;22.40;;
59555;SDS011;45374;52.746;6.304;2022-08-19T11:46:48;28.13;;;21.27;;
59555;SDS011;45374;52.746;6.304;2022-08-19T11:49:15;28.15;;;21.80;;
59555;SDS011;45374;52.746;6.304;2022-08-19T11:51:44;24.85;;;18.15;;
59555;SDS011;45374;52.746;6.304;2022-08-19T11:54:11;17.98;;;14.13;;
59555;SDS011;45374;52.746;6.304;2022-08-19T11:56:39;30.67;;;19.75;;
59555;SDS011;45374;52.746;6.304;2022-08-19T11:59:05;24.67;;;19.13;;
59555;SDS011;45374;52.746;6.304;2022-08-19T12:01:32;31.35;;;23.20;;
59555;SDS011;45374;52.746;6.304;2022-08-19T12:03:59;25.20;;;20.00;;
59555;SDS011;45374;52.746;6.304;2022-08-19T12:06:29;22.67;;;18.50;;
59555;SDS011;45374;52.746;6.304;2022-08-19T12:08:57;26.20;;;18.70;;
59555;SDS011;45374;52.746;6.304;2022-08-19T12:11:24;29.98;;;21.95;;
59555;SDS011;45374;52.746;6.304;2022-08-19T12:13:51;28.85;;;22.45;;
59555;SDS011;45374;52.746;6.304;2022-08-19T12:16:18;31.23;;;23.73;;
59555;SDS011;45374;52.746;6.304;2022-08-19T12:18:46;26.42;;;20.13;;
59555;SDS011;45374;52.746;6.304;2022-08-19T12:21:12;20.90;;;16.25;;
59555;SDS011;45374;52.746;6.304;2022-08-19T12:23:39;20.30;;;15.15;;
59555;SDS011;45374;52.746;6.304;2022-08-19T12:26:06;29.05;;;22.00;;
59555;SDS011;45374;52.746;6.304;2022-08-19T12:28:33;29.92;;;21.92;;
59555;SDS011;45374;52.746;6.304;2022-08-19T12:30:59;27.63;;;20.85;;
59555;SDS011;45374;52.746;6.304;2022-08-19T12:33:25;24.65;;;18.60;;
59555;SDS011;45374;52.746;6.304;2022-08-19T12:35:53;19.88;;;16.02;;
59555;SDS011;45374;52.746;6.304;2022-08-19T12:38:19;18.08;;;13.52;;
59555;SDS011;45374;52.746;6.304;2022-08-19T12:40:46;15.48;;;11.30;;
59555;SDS011;45374;52.746;6.304;2022-08-19T12:43:13;19.20;;;14.85;;
59555;SDS011;45374;52.746;6.304;2022-08-19T12:45:40;29.40;;;23.08;;
59555;SDS011;45374;52.746;6.304;2022-08-19T12:48:07;25.40;;;20.00;;
59555;SDS011;45374;52.746;6.304;2022-08-19T12:50:33;28.52;;;20.60;;
59555;SDS011;45374;52.746;6.304;2022-08-19T12:52:59;23.13;;;16.88;;
59555;SDS011;45374;52.746;6.304;2022-08-19T12:55:25;16.77;;;14.73;;
59555;SDS011;45374;52.746;6.304;2022-08-19T12:57:53;28.42;;;18.77;;
59555;SDS011;45374;52.746;6.304;2022-08-19T13:00:19;30.23;;;21.25;;
59555;SDS011;45374;52.746;6.304;2022-08-19T13:02:47;32.72;;;21.33;;
59555;SDS011;45374;52.746;6.304;2022-08-19T13:05:26;27.17;;;18.42;;
59555;SDS011;45374;52.746;6.304;2022-08-19T13:07:53;24.48;;;18.55;;
59555;SDS011;45374;52.746;6.304;2022-08-19T13:10:22;21.55;;;14.85;;
59555;SDS011;45374;52.746;6.304;2022-08-19T13:12:50;20.00;;;14.88;;
59555;SDS011;45374;52.746;6.304;2022-08-19T13:15:17;21.38;;;15.38;;
59555;SDS011;45374;52.746;6.304;2022-08-19T13:17:45;28.08;;;18.60;;
59555;SDS011;45374;52.746;6.304;2022-08-19T13:20:13;21.48;;;17.95;;
59555;SDS011;45374;52.746;6.304;2022-08-19T13:22:40;21.10;;;16.45;;
59555;SDS011;45374;52.746;6.304;2022-08-19T13:25:06;16.73;;;14.57;;
59555;SDS011;45374;52.746;6.304;2022-08-19T13:27:32;21.52;;;16.80;;
59555;SDS011;45374;52.746;6.304;2022-08-19T13:29:58;25.77;;;20.08;;
59555;SDS011;45374;52.746;6.304;2022-08-19T13:32:43;24.73;;;19.48;;
59555;SDS011;45374;52.746;6.304;2022-08-19T13:35:27;24.27;;;19.55;;
59555;SDS011;45374;52.746;6.304;2022-08-19T13:37:53;25.83;;;19.73;;
59555;SDS011;45374;52.746;6.304;2022-08-19T13:40:20;31.13;;;21.10;;
59555;SDS011;45374;52.746;6.304;2022-08-19T13:42:49;24.85;;;19.67;;
59555;SDS011;45374;52.746;6.304;2022-08-19T13:45:18;28.92;;;22.55;;
59555;SDS011;45374;52.746;6.304;2022-08-19T13:47:50;31.13;;;22.77;;
59555;SDS011;45374;52.746;6.304;2022-08-19T13:50:18;29.05;;;23.48;;
59555;SDS011;45374;52.746;6.304;2022-08-19T13:52:47;40.08;;;28.98;;
59555;SDS011;45374;52.746;6.304;2022-08-19T13:55:13;41.67;;;28.58;;
59555;SDS011;45374;52.746;6.304;2022-08-19T13:57:40;39.00;;;28.63;;
59555;SDS011;45374;52.746;6.304;2022-08-19T14:00:09;37.00;;;28.75;;
59555;SDS011;45374;52.746;6.304;2022-08-19T14:02:42;36.33;;;27.27;;
59555;SDS011;45374;52.746;6.304;2022-08-19T14:05:10;27.25;;;22.73;;
59555;SDS011;45374;52.746;6.304;2022-08-19T14:07:38;28.90;;;23.30;;
59555;SDS011;45374;52.746;6.304;2022-08-19T14:10:05;29.40;;;24.33;;
59555;SDS011;45374;52.746;6.304;2022-08-19T14:12:33;31.77;;;22.65;;
59555;SDS011;45374;52.746;6.304;2022-08-19T14:14:59;33.63;;;24.60;;
59555;SDS011;45374;52.746;6.304;2022-08-19T14:17:25;28.13;;;22.08;;
59555;SDS011;45374;52.746;6.304;2022-08-19T14:19:57;29.75;;;23.17;;
59555;SDS011;45374;52.746;6.304;2022-08-19T14:22:25;28.38;;;22.35;;
59555;SDS011;45374;52.746;6.304;2022-08-19T14:24:51;25.67;;;18.35;;
59555;SDS011;45374;52.746;6.304;2022-08-19T14:27:17;23.95;;;17.85;;
59555;SDS011;45374;52.746;6.304;2022-08-19T14:29:42;27.02;;;17.83;;
59555;SDS011;45374;52.746;6.304;2022-08-19T14:32:09;24.98;;;17.65;;
59555;SDS011;45374;52.746;6.304;2022-08-19T14:34:35;25.15;;;18.60;;
59555;SDS011;45374;52.746;6.304;2022-08-19T14:37:02;25.75;;;18.83;;
59555;SDS011;45374;52.746;6.304;2022-08-19T14:39:27;25.38;;;18.67;;
59555;SDS011;45374;52.746;6.304;2022-08-19T14:41:53;30.65;;;19.42;;
59555;SDS011;45374;52.746;6.304;2022-08-19T14:44:18;24.35;;;17.55;;
59555;SDS011;45374;52.746;6.304;2022-08-19T14:46:44;30.55;;;21.00;;
59555;SDS011;45374;52.746;6.304;2022-08-19T14:49:10;30.55;;;21.73;;
59555;SDS011;45374;52.746;6.304;2022-08-19T14:51:35;29.45;;;21.20;;
59555;SDS011;45374;52.746;6.304;2022-08-19T14:54:01;28.17;;;20.55;;
59555;SDS011;45374;52.746;6.304;2022-08-19T14:56:27;27.85;;;20.92;;
59555;SDS011;45374;52.746;6.304;2022-08-19T14:58:55;28.15;;;20.67;;
59555;SDS011;45374;52.746;6.304;2022-08-19T15:01:24;32.13;;;19.25;;
59555;SDS011;45374;52.746;6.304;2022-08-19T15:03:50;24.27;;;18.65;;
59555;SDS011;45374;52.746;6.304;2022-08-19T15:06:19;26.95;;;18.13;;
59555;SDS011;45374;52.746;6.304;2022-08-19T15:08:47;25.40;;;19.20;;
59555;SDS011;45374;52.746;6.304;2022-08-19T15:11:14;25.33;;;17.77;;
59555;SDS011;45374;52.746;6.304;2022-08-19T15:13:43;24.85;;;18.60;;
59555;SDS011;45374;52.746;6.304;2022-08-19T15:16:11;28.88;;;17.98;;
59555;SDS011;45374;52.746;6.304;2022-08-19T15:18:39;24.42;;;16.63;;
59555;SDS011;45374;52.746;6.304;2022-08-19T15:21:09;21.15;;;14.75;;
59555;SDS011;45374;52.746;6.304;2022-08-19T15:23:39;18.58;;;14.38;;